sensor_id;sensor_type;location;lat;lon;timestamp;pressure;altitude;pressure_sealevel;temperature;humidity
69524;BME280;56723;42.694;23.286;2023-04-15T00:01:05;94336.81;;;6.74;85.11
69524;BME280;56723;42.694;23.286;2023-04-15T00:03:32;94333.91;;;6.60;87.02
69524;BME280;56723;42.694;23.286;2023-04-15T00:06:00;94344.19;;;6.69;87.37
69524;BME280;56723;42.694;23.286;2023-04-15T00:08:28;94337.28;;;6.69;84.60
69524;BME280;56723;42.694;23.286;2023-04-15T00:10:55;94337.00;;;6.80;87.27
69524;BME280;56723;42.694;23.286;2023-04-15T00:13:25;94327.34;;;6.82;85.73
69524;BME280;56723;42.694;23.286;2023-04-15T00:15:52;94331.38;;;6.93;83.78
69524;BME280;56723;42.694;23.286;2023-04-15T00:18:19;94324.28;;;6.95;83.09
69524;BME280;56723;42.694;23.286;2023-04-15T00:20:45;94319.78;;;7.05;82.60
69524;BME280;56723;42.694;23.286;2023-04-15T00:23:13;94323.50;;;7.11;82.22
69524;BME280;56723;42.694;23.286;2023-04-15T00:25:40;94331.22;;;7.03;84.42
69524;BME280;56723;42.694;23.286;2023-04-15T00:28:08;94320.94;;;7.03;85.50
69524;BME280;56723;42.694;23.286;2023-04-15T00:30:35;94336.84;;;7.06;85.34
69524;BME280;56723;42.694;23.286;2023-04-15T00:33:02;94337.81;;;7.05;85.47
69524;BME280;56723;42.694;23.286;2023-04-15T00:35:29;94342.66;;;7.00;87.16
69524;BME280;56723;42.694;23.286;2023-04-15T00:37:59;94347.94;;;6.90;90.18
69524;BME280;56723;42.694;23.286;2023-04-15T00:40:26;94350.69;;;6.89;92.11
69524;BME280;56723;42.694;23.286;2023-04-15T00:42:53;94341.69;;;6.93;94.43
69524;BME280;56723;42.694;23.286;2023-04-15T00:45:20;94338.13;;;6.94;95.21
69524;BME280;56723;42.694;23.286;2023-04-15T00:47:47;94332.34;;;7.00;95.38
69524;BME280;56723;42.694;23.286;2023-04-15T00:50:15;94323.16;;;7.06;95.66
69524;BME280;56723;42.694;23.286;2023-04-15T00:52:42;94322.69;;;7.18;93.32
69524;BME280;56723;42.694;23.286;2023-04-15T00:55:09;94316.91;;;7.16;95.47
69524;BME280;56723;42.694;23.286;2023-04-15T01:59:43;94360.56;;;6.43;100.00
69524;BME280;56723;42.694;23.286;2023-04-15T02:02:10;94353.50;;;6.45;100.00
69524;BME280;56723;42.694;23.286;2023-04-15T02:04:37;94357.03;;;6.44;100.00
69524;BME280;56723;42.694;23.286;2023-04-15T03:07:42;94364.69;;;5.25;100.00
69524;BME280;56723;42.694;23.286;2023-04-15T03:10:10;94359.91;;;5.30;100.00
69524;BME280;56723;42.694;23.286;2023-04-15T03:12:37;94368.28;;;5.32;100.00
69524;BME280;56723;42.694;23.286;2023-04-15T05:18:36;94488.56;;;5.89;92.07
69524;BME280;56723;42.694;23.286;2023-04-15T05:21:03;94485.22;;;5.97;90.90
69524;BME280;56723;42.694;23.286;2023-04-15T05:23:31;94496.09;;;6.09;91.95
69524;BME280;56723;42.694;23.286;2023-04-15T05:25:58;94488.13;;;6.20;89.39
69524;BME280;56723;42.694;23.286;2023-04-15T05:57:39;94488.25;;;7.20;83.15
69524;BME280;56723;42.694;23.286;2023-04-15T06:00:06;94492.47;;;7.38;82.91
69524;BME280;56723;42.694;23.286;2023-04-15T06:02:36;94496.00;;;7.45;81.12
69524;BME280;56723;42.694;23.286;2023-04-15T06:05:04;94496.22;;;7.59;83.37
69524;BME280;56723;42.694;23.286;2023-04-15T06:07:36;94500.72;;;7.74;79.78
69524;BME280;56723;42.694;23.286;2023-04-15T06:10:04;94497.00;;;7.84;79.48
69524;BME280;56723;42.694;23.286;2023-04-15T06:39:47;94520.19;;;8.65;75.24
69524;BME280;56723;42.694;23.286;2023-04-15T06:42:14;94524.00;;;8.86;75.68
69524;BME280;56723;42.694;23.286;2023-04-15T06:44:41;94527.34;;;9.02;74.80
69524;BME280;56723;42.694;23.286;2023-04-15T06:47:08;94530.81;;;9.18;72.64
69524;BME280;56723;42.694;23.286;2023-04-15T06:49:35;94527.25;;;9.27;72.00
69524;BME280;56723;42.694;23.286;2023-04-15T06:52:02;94530.91;;;9.32;71.41
69524;BME280;56723;42.694;23.286;2023-04-15T06:54:30;94515.69;;;9.37;70.62
69524;BME280;56723;42.694;23.286;2023-04-15T06:56:57;94526.81;;;9.46;69.48
69524;BME280;56723;42.694;23.286;2023-04-15T06:59:24;94531.19;;;9.68;69.66
69524;BME280;56723;42.694;23.286;2023-04-15T07:01:53;94526.72;;;9.85;69.68
69524;BME280;56723;42.694;23.286;2023-04-15T07:04:20;94526.94;;;9.98;66.88
69524;BME280;56723;42.694;23.286;2023-04-15T07:06:47;94513.13;;;10.06;66.20
69524;BME280;56723;42.694;23.286;2023-04-15T07:09:14;94504.72;;;10.27;67.05
69524;BME280;56723;42.694;23.286;2023-04-15T07:11:42;94510.84;;;10.34;65.29
69524;BME280;56723;42.694;23.286;2023-04-15T07:14:09;94510.69;;;10.50;64.97
69524;BME280;56723;42.694;23.286;2023-04-15T07:16:36;94518.09;;;10.68;65.20
69524;BME280;56723;42.694;23.286;2023-04-15T07:19:03;94515.25;;;10.77;62.92
69524;BME280;56723;42.694;23.286;2023-04-15T07:21:30;94526.88;;;10.82;60.72
69524;BME280;56723;42.694;23.286;2023-04-15T07:24:00;94522.31;;;10.84;61.66
69524;BME280;56723;42.694;23.286;2023-04-15T07:26:27;94518.03;;;10.91;60.55
69524;BME280;56723;42.694;23.286;2023-04-15T07:28:55;94515.78;;;10.88;60.31
69524;BME280;56723;42.694;23.286;2023-04-15T07:31:22;94515.88;;;11.09;61.30
69524;BME280;56723;42.694;23.286;2023-04-15T07:33:50;94522.47;;;11.26;58.34
69524;BME280;56723;42.694;23.286;2023-04-15T07:36:17;94521.63;;;11.40;57.30
69524;BME280;56723;42.694;23.286;2023-04-15T07:38:44;94518.69;;;11.43;56.93
69524;BME280;56723;42.694;23.286;2023-04-15T07:41:11;94508.94;;;11.45;56.29
69524;BME280;56723;42.694;23.286;2023-04-15T07:43:38;94516.56;;;11.68;57.29
69524;BME280;56723;42.694;23.286;2023-04-15T07:46:05;94515.97;;;11.88;55.80
69524;BME280;56723;42.694;23.286;2023-04-15T07:48:32;94508.13;;;12.02;53.24
69524;BME280;56723;42.694;23.286;2023-04-15T07:51:01;94518.00;;;12.13;53.08
69524;BME280;56723;42.694;23.286;2023-04-15T07:53:29;94521.09;;;12.24;51.96
69524;BME280;56723;42.694;23.286;2023-04-15T07:55:56;94517.88;;;12.43;51.95
69524;BME280;56723;42.694;23.286;2023-04-15T07:58:23;94533.00;;;12.67;51.67
69524;BME280;56723;42.694;23.286;2023-04-15T08:00:50;94533.53;;;12.84;49.57
69524;BME280;56723;42.694;23.286;2023-04-15T08:03:17;94537.47;;;13.08;49.64
69524;BME280;56723;42.694;23.286;2023-04-15T08:05:44;94531.38;;;13.22;48.33
69524;BME280;56723;42.694;23.286;2023-04-15T08:08:12;94526.06;;;13.09;48.15
69524;BME280;56723;42.694;23.286;2023-04-15T08:10:40;94530.03;;;13.05;47.77
69524;BME280;56723;42.694;23.286;2023-04-15T08:13:07;94534.91;;;13.14;46.85
69524;BME280;56723;42.694;23.286;2023-04-15T08:15:34;94533.63;;;12.97;47.87
69524;BME280;56723;42.694;23.286;2023-04-15T08:18:01;94534.75;;;13.16;47.47
69524;BME280;56723;42.694;23.286;2023-04-15T08:20:28;94526.19;;;13.29;46.21
69524;BME280;56723;42.694;23.286;2023-04-15T08:22:55;94535.69;;;13.49;45.73
69524;BME280;56723;42.694;23.286;2023-04-15T08:25:22;94530.69;;;13.55;42.89
69524;BME280;56723;42.694;23.286;2023-04-15T08:27:49;94527.91;;;13.49;42.34
69524;BME280;56723;42.694;23.286;2023-04-15T08:30:17;94530.66;;;13.35;42.78
69524;BME280;56723;42.694;23.286;2023-04-15T08:32:45;94534.63;;;13.31;43.15
69524;BME280;56723;42.694;23.286;2023-04-15T08:35:13;94530.22;;;13.38;42.99
69524;BME280;56723;42.694;23.286;2023-04-15T08:37:40;94528.63;;;13.37;43.09
69524;BME280;56723;42.694;23.286;2023-04-15T08:40:07;94521.03;;;13.35;42.84
69524;BME280;56723;42.694;23.286;2023-04-15T08:42:43;94517.25;;;13.44;43.95
69524;BME280;56723;42.694;23.286;2023-04-15T08:45:15;94514.50;;;13.52;41.68
69524;BME280;56723;42.694;23.286;2023-04-15T08:47:43;94519.53;;;13.74;41.79
69524;BME280;56723;42.694;23.286;2023-04-15T08:50:11;94518.38;;;13.83;41.31
69524;BME280;56723;42.694;23.286;2023-04-15T08:52:41;94520.59;;;13.99;40.68
69524;BME280;56723;42.694;23.286;2023-04-15T08:55:08;94506.00;;;14.05;40.02
69524;BME280;56723;42.694;23.286;2023-04-15T08:57:36;94505.97;;;13.85;39.22
69524;BME280;56723;42.694;23.286;2023-04-15T09:00:04;94514.69;;;13.58;38.64
69524;BME280;56723;42.694;23.286;2023-04-15T09:02:32;94498.72;;;13.74;38.77
69524;BME280;56723;42.694;23.286;2023-04-15T09:04:59;94493.53;;;13.87;37.54
69524;BME280;56723;42.694;23.286;2023-04-15T09:07:26;94493.53;;;13.94;36.88
69524;BME280;56723;42.694;23.286;2023-04-15T09:09:53;94483.94;;;13.94;36.81
69524;BME280;56723;42.694;23.286;2023-04-15T09:12:21;94483.56;;;14.24;36.64
69524;BME280;56723;42.694;23.286;2023-04-15T09:14:48;94474.75;;;14.51;36.17
69524;BME280;56723;42.694;23.286;2023-04-15T09:17:18;94468.84;;;14.88;36.42
69524;BME280;56723;42.694;23.286;2023-04-15T09:19:46;94477.63;;;15.07;36.48
69524;BME280;56723;42.694;23.286;2023-04-15T09:22:14;94474.28;;;14.87;35.49
69524;BME280;56723;42.694;23.286;2023-04-15T09:24:41;94467.88;;;14.83;35.84
69524;BME280;56723;42.694;23.286;2023-04-15T09:27:09;94461.38;;;15.12;34.02
69524;BME280;56723;42.694;23.286;2023-04-15T09:29:36;94472.00;;;15.17;30.68
69524;BME280;56723;42.694;23.286;2023-04-15T09:32:13;94473.06;;;15.03;33.70
69524;BME280;56723;42.694;23.286;2023-04-15T09:34:41;94487.91;;;14.96;30.45
69524;BME280;56723;42.694;23.286;2023-04-15T09:37:08;94479.41;;;15.20;31.09
69524;BME280;56723;42.694;23.286;2023-04-15T09:39:51;94474.56;;;15.30;30.16
69524;BME280;56723;42.694;23.286;2023-04-15T09:42:18;94474.13;;;15.33;30.63
69524;BME280;56723;42.694;23.286;2023-04-15T09:44:53;94470.03;;;15.50;31.88
69524;BME280;56723;42.694;23.286;2023-04-15T09:47:27;94474.13;;;15.40;32.56
69524;BME280;56723;42.694;23.286;2023-04-15T09:49:59;94467.31;;;15.32;32.46
69524;BME280;56723;42.694;23.286;2023-04-15T09:52:27;94480.44;;;15.64;32.46
69524;BME280;56723;42.694;23.286;2023-04-15T09:54:56;94458.47;;;15.33;29.05
69524;BME280;56723;42.694;23.286;2023-04-15T09:57:24;94470.06;;;14.99;29.49
69524;BME280;56723;42.694;23.286;2023-04-15T09:59:51;94480.66;;;15.04;30.10
69524;BME280;56723;42.694;23.286;2023-04-15T10:02:19;94480.50;;;14.93;30.57
69524;BME280;56723;42.694;23.286;2023-04-15T10:04:47;94477.88;;;14.99;30.57
69524;BME280;56723;42.694;23.286;2023-04-15T10:07:16;94478.56;;;15.26;31.40
69524;BME280;56723;42.694;23.286;2023-04-15T10:09:47;94491.22;;;15.29;31.19
69524;BME280;56723;42.694;23.286;2023-04-15T10:12:18;94480.38;;;15.32;30.32
69524;BME280;56723;42.694;23.286;2023-04-15T10:14:55;94474.41;;;15.70;29.19
69524;BME280;56723;42.694;23.286;2023-04-15T10:17:29;94463.59;;;15.53;29.49
69524;BME280;56723;42.694;23.286;2023-04-15T10:20:03;94468.31;;;15.31;30.46
69524;BME280;56723;42.694;23.286;2023-04-15T10:22:31;94458.97;;;15.04;30.71
69524;BME280;56723;42.694;23.286;2023-04-15T10:24:59;94453.34;;;15.07;30.97
69524;BME280;56723;42.694;23.286;2023-04-15T10:27:26;94443.56;;;15.40;31.07
69524;BME280;56723;42.694;23.286;2023-04-15T10:29:55;94448.59;;;15.80;29.37
69524;BME280;56723;42.694;23.286;2023-04-15T10:32:24;94440.78;;;16.05;29.50
69524;BME280;56723;42.694;23.286;2023-04-15T10:34:52;94432.75;;;16.06;28.83
69524;BME280;56723;42.694;23.286;2023-04-15T10:37:21;94440.22;;;16.03;29.31
69524;BME280;56723;42.694;23.286;2023-04-15T10:39:49;94443.47;;;15.67;30.60
69524;BME280;56723;42.694;23.286;2023-04-15T10:42:17;94446.19;;;15.78;31.19
69524;BME280;56723;42.694;23.286;2023-04-15T10:44:49;94444.53;;;15.90;31.32
69524;BME280;56723;42.694;23.286;2023-04-15T10:47:20;94447.66;;;15.99;31.07
69524;BME280;56723;42.694;23.286;2023-04-15T10:49:50;94448.78;;;15.85;31.37
69524;BME280;56723;42.694;23.286;2023-04-15T10:52:22;94450.97;;;15.88;31.95
69524;BME280;56723;42.694;23.286;2023-04-15T10:55:01;94437.56;;;16.09;31.21
69524;BME280;56723;42.694;23.286;2023-04-15T10:57:34;94434.56;;;16.31;30.57
69524;BME280;56723;42.694;23.286;2023-04-15T11:00:13;94429.47;;;16.36;30.85
69524;BME280;56723;42.694;23.286;2023-04-15T11:03:07;94427.78;;;16.48;30.75
69524;BME280;56723;42.694;23.286;2023-04-15T11:08:11;94418.19;;;16.17;31.22
69524;BME280;56723;42.694;23.286;2023-04-15T11:13:22;94438.19;;;16.30;31.15
69524;BME280;56723;42.694;23.286;2023-04-15T11:15:54;94424.63;;;16.14;31.55
69524;BME280;56723;42.694;23.286;2023-04-15T11:18:24;94414.16;;;16.14;30.85
69524;BME280;56723;42.694;23.286;2023-04-15T11:20:53;94408.59;;;16.54;31.32
69524;BME280;56723;42.694;23.286;2023-04-15T11:25:57;94406.19;;;16.09;31.80
69524;BME280;56723;42.694;23.286;2023-04-15T11:28:27;94420.56;;;16.18;31.00
69524;BME280;56723;42.694;23.286;2023-04-15T11:30:55;94420.78;;;16.17;30.85
69524;BME280;56723;42.694;23.286;2023-04-15T11:33:23;94412.25;;;16.28;30.13
69524;BME280;56723;42.694;23.286;2023-04-15T11:35:53;94418.91;;;16.49;29.98
69524;BME280;56723;42.694;23.286;2023-04-15T11:38:20;94422.19;;;16.19;30.09
69524;BME280;56723;42.694;23.286;2023-04-15T11:40:49;94424.69;;;16.33;30.49
69524;BME280;56723;42.694;23.286;2023-04-15T11:43:19;94410.91;;;16.44;30.44
69524;BME280;56723;42.694;23.286;2023-04-15T11:48:33;94420.66;;;16.12;30.52
69524;BME280;56723;42.694;23.286;2023-04-15T11:51:06;94418.66;;;16.32;30.52
69524;BME280;56723;42.694;23.286;2023-04-15T11:53:47;94408.28;;;16.44;29.55
69524;BME280;56723;42.694;23.286;2023-04-15T11:56:20;94419.47;;;16.33;29.68
69524;BME280;56723;42.694;23.286;2023-04-15T11:58:51;94415.38;;;16.37;29.99
69524;BME280;56723;42.694;23.286;2023-04-15T12:01:18;94407.88;;;16.47;28.70
69524;BME280;56723;42.694;23.286;2023-04-15T12:03:46;94411.78;;;16.56;28.65
69524;BME280;56723;42.694;23.286;2023-04-15T12:06:23;94416.13;;;16.44;28.55
69524;BME280;56723;42.694;23.286;2023-04-15T12:09:07;94409.03;;;16.51;28.80
69524;BME280;56723;42.694;23.286;2023-04-15T12:11:43;94408.56;;;16.79;28.63
69524;BME280;56723;42.694;23.286;2023-04-15T12:14:30;94401.09;;;16.64;28.60
69524;BME280;56723;42.694;23.286;2023-04-15T12:16:59;94408.78;;;16.95;28.52
69524;BME280;56723;42.694;23.286;2023-04-15T12:19:29;94415.78;;;17.02;28.36
69524;BME280;56723;42.694;23.286;2023-04-15T12:22:00;94409.56;;;17.14;27.36
69524;BME280;56723;42.694;23.286;2023-04-15T12:24:31;94414.81;;;16.78;26.86
69524;BME280;56723;42.694;23.286;2023-04-15T12:27:04;94403.09;;;16.62;27.54
69524;BME280;56723;42.694;23.286;2023-04-15T12:29:34;94412.59;;;16.56;27.92
69524;BME280;56723;42.694;23.286;2023-04-15T12:32:08;94418.88;;;16.74;27.78
69524;BME280;56723;42.694;23.286;2023-04-15T12:34:37;94420.00;;;16.84;28.29
69524;BME280;56723;42.694;23.286;2023-04-15T12:37:07;94420.41;;;17.00;28.26
69524;BME280;56723;42.694;23.286;2023-04-15T12:39:36;94414.44;;;17.11;28.53
69524;BME280;56723;42.694;23.286;2023-04-15T12:42:04;94419.31;;;17.07;28.54
69524;BME280;56723;42.694;23.286;2023-04-15T12:44:32;94423.31;;;17.10;28.49
69524;BME280;56723;42.694;23.286;2023-04-15T12:46:59;94424.31;;;17.27;27.82
69524;BME280;56723;42.694;23.286;2023-04-15T12:49:27;94420.03;;;17.14;28.18
69524;BME280;56723;42.694;23.286;2023-04-15T12:51:56;94425.34;;;17.08;27.73
69524;BME280;56723;42.694;23.286;2023-04-15T12:54:23;94430.56;;;17.08;27.70
69524;BME280;56723;42.694;23.286;2023-04-15T12:56:50;94436.28;;;16.86;27.49
69524;BME280;56723;42.694;23.286;2023-04-15T12:59:17;94429.13;;;16.93;27.67
69524;BME280;56723;42.694;23.286;2023-04-15T13:01:45;94420.19;;;16.65;27.99
69524;BME280;56723;42.694;23.286;2023-04-15T13:04:13;94425.44;;;16.58;28.04
69524;BME280;56723;42.694;23.286;2023-04-15T13:06:41;94430.47;;;16.84;27.86
69524;BME280;56723;42.694;23.286;2023-04-15T13:09:08;94430.56;;;17.08;27.93
69524;BME280;56723;42.694;23.286;2023-04-15T13:11:35;94420.56;;;17.23;28.26
69524;BME280;56723;42.694;23.286;2023-04-15T13:14:05;94412.22;;;17.26;27.63
69524;BME280;56723;42.694;23.286;2023-04-15T13:16:33;94407.31;;;17.18;27.84
69524;BME280;56723;42.694;23.286;2023-04-15T13:19:02;94407.28;;;17.36;27.40
69524;BME280;56723;42.694;23.286;2023-04-15T13:21:29;94418.59;;;17.48;27.28
69524;BME280;56723;42.694;23.286;2023-04-15T13:24:01;94409.56;;;17.44;27.44
69524;BME280;56723;42.694;23.286;2023-04-15T13:26:29;94425.78;;;17.23;27.71
69524;BME280;56723;42.694;23.286;2023-04-15T13:28:57;94415.91;;;17.25;27.90
69524;BME280;56723;42.694;23.286;2023-04-15T13:31:24;94409.06;;;17.24;27.76
69524;BME280;56723;42.694;23.286;2023-04-15T13:33:51;94414.72;;;17.51;27.32
69524;BME280;56723;42.694;23.286;2023-04-15T13:36:18;94412.53;;;17.66;27.21
69524;BME280;56723;42.694;23.286;2023-04-15T13:38:45;94419.34;;;17.97;27.15
69524;BME280;56723;42.694;23.286;2023-04-15T13:41:15;94414.28;;;17.84;27.07
69524;BME280;56723;42.694;23.286;2023-04-15T13:43:42;94409.75;;;17.91;26.64
69524;BME280;56723;42.694;23.286;2023-04-15T13:46:09;94405.94;;;18.28;26.23
69524;BME280;56723;42.694;23.286;2023-04-15T13:48:36;94386.56;;;18.53;25.86
69524;BME280;56723;42.694;23.286;2023-04-15T13:51:03;94397.75;;;18.60;26.21
69524;BME280;56723;42.694;23.286;2023-04-15T13:53:30;94385.06;;;18.33;26.31
69524;BME280;56723;42.694;23.286;2023-04-15T13:56:08;94394.66;;;18.28;26.47
69524;BME280;56723;42.694;23.286;2023-04-15T13:58:37;94390.22;;;18.52;26.22
69524;BME280;56723;42.694;23.286;2023-04-15T14:01:04;94388.13;;;18.42;26.39
69524;BME280;56723;42.694;23.286;2023-04-15T14:03:36;94384.03;;;18.23;26.60
69524;BME280;56723;42.694;23.286;2023-04-15T14:06:04;94393.72;;;18.46;26.32
69524;BME280;56723;42.694;23.286;2023-04-15T14:08:32;94375.63;;;18.32;26.23
69524;BME280;56723;42.694;23.286;2023-04-15T14:10:59;94387.00;;;18.26;26.48
69524;BME280;56723;42.694;23.286;2023-04-15T14:13:26;94384.97;;;18.52;25.89
69524;BME280;56723;42.694;23.286;2023-04-15T14:15:53;94377.41;;;18.44;25.97
69524;BME280;56723;42.694;23.286;2023-04-15T14:18:20;94395.66;;;18.39;26.30
69524;BME280;56723;42.694;23.286;2023-04-15T14:20:47;94378.66;;;18.06;26.28
69524;BME280;56723;42.694;23.286;2023-04-15T14:23:14;94388.47;;;18.22;26.43
69524;BME280;56723;42.694;23.286;2023-04-15T14:25:41;94382.22;;;18.47;26.37
69524;BME280;56723;42.694;23.286;2023-04-15T14:28:08;94387.03;;;18.61;26.17
69524;BME280;56723;42.694;23.286;2023-04-15T14:30:35;94381.44;;;18.70;26.04
69524;BME280;56723;42.694;23.286;2023-04-15T14:33:02;94380.38;;;18.82;25.97
69524;BME280;56723;42.694;23.286;2023-04-15T14:35:29;94383.22;;;18.81;26.20
69524;BME280;56723;42.694;23.286;2023-04-15T14:37:57;94386.97;;;18.96;26.35
69524;BME280;56723;42.694;23.286;2023-04-15T14:40:24;94373.78;;;19.20;25.55
69524;BME280;56723;42.694;23.286;2023-04-15T14:42:51;94374.00;;;18.78;26.26
69524;BME280;56723;42.694;23.286;2023-04-15T14:45:17;94378.25;;;18.32;26.47
69524;BME280;56723;42.694;23.286;2023-04-15T14:47:45;94376.06;;;18.29;26.25
69524;BME280;56723;42.694;23.286;2023-04-15T14:50:12;94383.13;;;18.41;26.09
69524;BME280;56723;42.694;23.286;2023-04-15T14:52:39;94374.69;;;18.62;26.05
69524;BME280;56723;42.694;23.286;2023-04-15T14:55:08;94371.28;;;18.73;25.76
69524;BME280;56723;42.694;23.286;2023-04-15T14:57:40;94358.69;;;18.87;25.82
69524;BME280;56723;42.694;23.286;2023-04-15T15:00:09;94379.38;;;18.72;25.74
69524;BME280;56723;42.694;23.286;2023-04-15T15:02:41;94380.84;;;18.32;26.51
69524;BME280;56723;42.694;23.286;2023-04-15T15:05:09;94375.59;;;18.09;26.52
69524;BME280;56723;42.694;23.286;2023-04-15T15:07:38;94380.59;;;18.22;26.50
69524;BME280;56723;42.694;23.286;2023-04-15T15:10:06;94378.13;;;18.27;26.48
69524;BME280;56723;42.694;23.286;2023-04-15T15:12:34;94374.00;;;18.20;26.60
69524;BME280;56723;42.694;23.286;2023-04-15T15:15:02;94373.66;;;18.05;26.77
69524;BME280;56723;42.694;23.286;2023-04-15T15:17:41;94362.13;;;18.06;26.48
69524;BME280;56723;42.694;23.286;2023-04-15T15:20:09;94373.44;;;18.18;26.79
69524;BME280;56723;42.694;23.286;2023-04-15T15:22:36;94374.34;;;18.23;26.56
69524;BME280;56723;42.694;23.286;2023-04-15T15:25:03;94370.25;;;18.27;26.61
69524;BME280;56723;42.694;23.286;2023-04-15T15:27:30;94361.81;;;18.14;26.74
69524;BME280;56723;42.694;23.286;2023-04-15T15:29:58;94369.22;;;18.40;26.56
69524;BME280;56723;42.694;23.286;2023-04-15T15:32:25;94361.44;;;17.87;26.66
69524;BME280;56723;42.694;23.286;2023-04-15T15:34:52;94371.50;;;17.60;27.14
69524;BME280;56723;42.694;23.286;2023-04-15T15:37:19;94373.53;;;17.28;27.82
69524;BME280;56723;42.694;23.286;2023-04-15T15:39:47;94368.44;;;17.33;28.06
69524;BME280;56723;42.694;23.286;2023-04-15T15:42:14;94369.53;;;17.44;27.84
69524;BME280;56723;42.694;23.286;2023-04-15T15:44:41;94376.34;;;17.15;27.96
69524;BME280;56723;42.694;23.286;2023-04-15T15:47:08;94372.72;;;17.27;27.72
69524;BME280;56723;42.694;23.286;2023-04-15T15:49:35;94382.47;;;17.39;27.74
69524;BME280;56723;42.694;23.286;2023-04-15T15:52:02;94378.56;;;17.59;27.67
69524;BME280;56723;42.694;23.286;2023-04-15T15:54:28;94369.16;;;17.82;27.55
69524;BME280;56723;42.694;23.286;2023-04-15T15:56:55;94371.03;;;17.63;27.20
69524;BME280;56723;42.694;23.286;2023-04-15T15:59:23;94387.31;;;17.53;27.24
69524;BME280;56723;42.694;23.286;2023-04-15T16:01:51;94380.91;;;17.49;27.48
69524;BME280;56723;42.694;23.286;2023-04-15T16:04:20;94381.50;;;17.93;27.20
69524;BME280;56723;42.694;23.286;2023-04-15T16:06:47;94379.00;;;18.21;26.92
69524;BME280;56723;42.694;23.286;2023-04-15T16:09:14;94375.81;;;18.19;27.08
69524;BME280;56723;42.694;23.286;2023-04-15T16:11:43;94380.72;;;18.27;27.28
69524;BME280;56723;42.694;23.286;2023-04-15T16:14:10;94373.34;;;18.36;26.67
69524;BME280;56723;42.694;23.286;2023-04-15T16:16:37;94373.88;;;18.26;26.83
69524;BME280;56723;42.694;23.286;2023-04-15T16:19:05;94364.84;;;18.57;26.55
69524;BME280;56723;42.694;23.286;2023-04-15T16:21:33;94366.84;;;18.74;26.45
69524;BME280;56723;42.694;23.286;2023-04-15T16:24:00;94380.63;;;18.34;26.54
69524;BME280;56723;42.694;23.286;2023-04-15T16:26:27;94376.63;;;18.08;27.01
69524;BME280;56723;42.694;23.286;2023-04-15T16:28:54;94369.94;;;17.71;27.49
69524;BME280;56723;42.694;23.286;2023-04-15T16:31:21;94376.28;;;17.03;28.23
69524;BME280;56723;42.694;23.286;2023-04-15T16:33:48;94376.22;;;16.91;28.38
69524;BME280;56723;42.694;23.286;2023-04-15T16:36:15;94366.19;;;16.70;28.75
69524;BME280;56723;42.694;23.286;2023-04-15T16:38:42;94376.22;;;16.73;28.95
69524;BME280;56723;42.694;23.286;2023-04-15T16:41:12;94379.84;;;16.72;28.95
69524;BME280;56723;42.694;23.286;2023-04-15T16:43:39;94386.56;;;16.86;28.77
69524;BME280;56723;42.694;23.286;2023-04-15T16:46:06;94386.25;;;16.76;28.73
69524;BME280;56723;42.694;23.286;2023-04-15T16:48:33;94380.75;;;16.66;29.06
69524;BME280;56723;42.694;23.286;2023-04-15T16:51:00;94388.69;;;16.53;29.24
69524;BME280;56723;42.694;23.286;2023-04-15T16:53:27;94384.00;;;16.37;29.18
69524;BME280;56723;42.694;23.286;2023-04-15T16:55:54;94387.34;;;16.25;29.29
69524;BME280;56723;42.694;23.286;2023-04-15T16:58:21;94395.31;;;16.12;29.90
69524;BME280;56723;42.694;23.286;2023-04-15T17:00:49;94387.94;;;16.03;30.06
69524;BME280;56723;42.694;23.286;2023-04-15T17:03:16;94402.66;;;15.97;29.98
69524;BME280;56723;42.694;23.286;2023-04-15T17:05:43;94392.31;;;15.84;30.01
69524;BME280;56723;42.694;23.286;2023-04-15T17:08:10;94391.81;;;15.69;30.46
69524;BME280;56723;42.694;23.286;2023-04-15T17:10:37;94402.09;;;15.64;30.57
69524;BME280;56723;42.694;23.286;2023-04-15T17:13:07;94397.16;;;15.42;30.80
69524;BME280;56723;42.694;23.286;2023-04-15T17:15:34;94406.59;;;15.43;30.74
69524;BME280;56723;42.694;23.286;2023-04-15T17:18:01;94407.06;;;15.34;31.17
69524;BME280;56723;42.694;23.286;2023-04-15T17:20:28;94413.13;;;15.28;31.31
69524;BME280;56723;42.694;23.286;2023-04-15T17:22:56;94416.13;;;15.24;31.32
69524;BME280;56723;42.694;23.286;2023-04-15T17:25:23;94414.75;;;15.22;31.30
69524;BME280;56723;42.694;23.286;2023-04-15T17:27:50;94407.16;;;15.14;31.77
69524;BME280;56723;42.694;23.286;2023-04-15T17:30:18;94419.75;;;15.23;31.88
69524;BME280;56723;42.694;23.286;2023-04-15T17:32:45;94431.44;;;15.21;31.98
69524;BME280;56723;42.694;23.286;2023-04-15T17:35:12;94420.88;;;15.03;32.54
69524;BME280;56723;42.694;23.286;2023-04-15T17:37:39;94433.53;;;14.93;32.79
69524;BME280;56723;42.694;23.286;2023-04-15T17:40:07;94446.22;;;14.82;32.99
69524;BME280;56723;42.694;23.286;2023-04-15T17:42:34;94437.59;;;14.75;33.00
69524;BME280;56723;42.694;23.286;2023-04-15T17:45:01;94442.63;;;14.77;32.76
69524;BME280;56723;42.694;23.286;2023-04-15T17:47:28;94446.63;;;14.79;32.65
69524;BME280;56723;42.694;23.286;2023-04-15T17:49:55;94446.81;;;14.78;32.50
69524;BME280;56723;42.694;23.286;2023-04-15T17:52:22;94447.44;;;14.73;32.33
69524;BME280;56723;42.694;23.286;2023-04-15T17:54:49;94456.88;;;14.74;32.40
69524;BME280;56723;42.694;23.286;2023-04-15T17:57:16;94445.81;;;14.72;32.32
69524;BME280;56723;42.694;23.286;2023-04-15T17:59:43;94458.28;;;14.70;33.00
69524;BME280;56723;42.694;23.286;2023-04-15T18:02:13;94464.69;;;14.74;32.65
69524;BME280;56723;42.694;23.286;2023-04-15T18:04:41;94470.31;;;14.71;32.78
69524;BME280;56723;42.694;23.286;2023-04-15T18:07:08;94470.09;;;14.66;33.20
69524;BME280;56723;42.694;23.286;2023-04-15T18:09:35;94470.13;;;14.60;33.36